sensor_id;sensor_type;location;lat;lon;timestamp;P1;durP1;ratioP1;P2;durP2;ratioP2
4428;SDS011;2227;47.810;8.810;2023-08-17T03:49:03;6.15;;;4.25;;
4428;SDS011;2227;47.810;8.810;2023-08-17T03:51:30;6.20;;;4.03;;
4428;SDS011;2227;47.810;8.810;2023-08-17T03:53:57;5.90;;;4.30;;
4428;SDS011;2227;47.810;8.810;2023-08-17T03:56:24;6.68;;;4.25;;
4428;SDS011;2227;47.810;8.810;2023-08-17T03:58:53;7.25;;;4.80;;
4428;SDS011;2227;47.810;8.810;2023-08-17T04:01:20;5.38;;;4.28;;
4428;SDS011;2227;47.810;8.810;2023-08-17T04:03:47;6.78;;;4.40;;
4428;SDS011;2227;47.810;8.810;2023-08-17T04:06:14;6.38;;;4.55;;
4428;SDS011;2227;47.810;8.810;2023-08-17T04:08:41;5.40;;;3.97;;
4428;SDS011;2227;47.810;8.810;2023-08-17T04:11:08;6.10;;;4.28;;
4428;SDS011;2227;47.810;8.810;2023-08-17T04:13:34;5.95;;;4.03;;
4428;SDS011;2227;47.810;8.810;2023-08-17T04:16:01;6.68;;;4.50;;
4428;SDS011;2227;47.810;8.810;2023-08-17T04:18:28;6.50;;;4.45;;
4428;SDS011;2227;47.810;8.810;2023-08-17T04:20:55;6.03;;;3.92;;
4428;SDS011;2227;47.810;8.810;2023-08-17T04:23:22;7.15;;;4.25;;
4428;SDS011;2227;47.810;8.810;2023-08-17T04:25:49;6.82;;;4.20;;
4428;SDS011;2227;47.810;8.810;2023-08-17T04:28:15;6.18;;;4.10;;
4428;SDS011;2227;47.810;8.810;2023-08-17T04:30:42;5.78;;;4.50;;
4428;SDS011;2227;47.810;8.810;2023-08-17T04:33:09;6.50;;;4.88;;
4428;SDS011;2227;47.810;8.810;2023-08-17T04:35:36;5.55;;;4.22;;
4428;SDS011;2227;47.810;8.810;2023-08-17T04:38:02;5.13;;;4.40;;
4428;SDS011;2227;47.810;8.810;2023-08-17T04:40:29;7.03;;;4.45;;
4428;SDS011;2227;47.810;8.810;2023-08-17T04:42:56;6.60;;;4.50;;
4428;SDS011;2227;47.810;8.810;2023-08-17T04:45:23;7.07;;;4.28;;
4428;SDS011;2227;47.810;8.810;2023-08-17T04:47:50;5.07;;;4.32;;
4428;SDS011;2227;47.810;8.810;2023-08-17T04:50:17;6.03;;;4.72;;
4428;SDS011;2227;47.810;8.810;2023-08-17T04:52:44;6.22;;;4.55;;
4428;SDS011;2227;47.810;8.810;2023-08-17T04:57:39;6.43;;;4.30;;
4428;SDS011;2227;47.810;8.810;2023-08-17T05:00:06;6.97;;;3.90;;
4428;SDS011;2227;47.810;8.810;2023-08-17T05:02:35;6.75;;;4.22;;
4428;SDS011;2227;47.810;8.810;2023-08-17T05:05:04;6.38;;;4.53;;
4428;SDS011;2227;47.810;8.810;2023-08-17T05:07:31;7.95;;;3.72;;
4428;SDS011;2227;47.810;8.810;2023-08-17T05:09:58;7.50;;;4.30;;
4428;SDS011;2227;47.810;8.810;2023-08-17T05:12:25;6.57;;;4.30;;
4428;SDS011;2227;47.810;8.810;2023-08-17T05:14:52;5.40;;;4.30;;
4428;SDS011;2227;47.810;8.810;2023-08-17T05:17:18;6.75;;;4.38;;
4428;SDS011;2227;47.810;8.810;2023-08-17T05:19:45;7.68;;;4.53;;
4428;SDS011;2227;47.810;8.810;2023-08-17T05:22:12;6.78;;;4.35;;
4428;SDS011;2227;47.810;8.810;2023-08-17T05:24:39;6.03;;;4.22;;
4428;SDS011;2227;47.810;8.810;2023-08-17T05:27:06;5.32;;;3.83;;
4428;SDS011;2227;47.810;8.810;2023-08-17T05:29:33;5.45;;;4.00;;
4428;SDS011;2227;47.810;8.810;2023-08-17T05:32:02;7.68;;;4.13;;
4428;SDS011;2227;47.810;8.810;2023-08-17T05:34:29;8.52;;;4.32;;
4428;SDS011;2227;47.810;8.810;2023-08-17T05:36:56;5.90;;;4.07;;
4428;SDS011;2227;47.810;8.810;2023-08-17T05:39:23;6.03;;;3.97;;
4428;SDS011;2227;47.810;8.810;2023-08-17T05:41:49;6.30;;;4.25;;
4428;SDS011;2227;47.810;8.810;2023-08-17T05:44:17;6.70;;;3.90;;
4428;SDS011;2227;47.810;8.810;2023-08-17T05:46:44;6.82;;;3.97;;
4428;SDS011;2227;47.810;8.810;2023-08-17T05:49:11;7.65;;;4.90;;
4428;SDS011;2227;47.810;8.810;2023-08-17T05:51:37;7.05;;;4.13;;
4428;SDS011;2227;47.810;8.810;2023-08-17T05:54:04;5.28;;;4.15;;
4428;SDS011;2227;47.810;8.810;2023-08-17T05:56:31;6.20;;;3.95;;
4428;SDS011;2227;47.810;8.810;2023-08-17T05:58:58;5.88;;;4.25;;
4428;SDS011;2227;47.810;8.810;2023-08-17T06:01:24;6.78;;;4.40;;
4428;SDS011;2227;47.810;8.810;2023-08-17T06:03:52;7.75;;;4.70;;
4428;SDS011;2227;47.810;8.810;2023-08-17T06:06:19;6.97;;;4.72;;
4428;SDS011;2227;47.810;8.810;2023-08-17T06:08:46;6.32;;;4.50;;
4428;SDS011;2227;47.810;8.810;2023-08-17T06:11:13;7.88;;;5.00;;
4428;SDS011;2227;47.810;8.810;2023-08-17T06:13:39;5.38;;;4.55;;
4428;SDS011;2227;47.810;8.810;2023-08-17T06:16:06;7.38;;;4.65;;
4428;SDS011;2227;47.810;8.810;2023-08-17T06:18:33;8.90;;;5.32;;
4428;SDS011;2227;47.810;8.810;2023-08-17T06:21:00;6.93;;;5.13;;
4428;SDS011;2227;47.810;8.810;2023-08-17T06:23:27;9.13;;;5.30;;
4428;SDS011;2227;47.810;8.810;2023-08-17T06:25:57;8.77;;;4.93;;
4428;SDS011;2227;47.810;8.810;2023-08-17T06:28:25;5.63;;;4.35;;
4428;SDS011;2227;47.810;8.810;2023-08-17T06:30:53;8.05;;;4.35;;
4428;SDS011;2227;47.810;8.810;2023-08-17T06:33:22;10.35;;;5.63;;
4428;SDS011;2227;47.810;8.810;2023-08-17T06:35:50;7.78;;;4.88;;
4428;SDS011;2227;47.810;8.810;2023-08-17T06:38:16;7.05;;;4.45;;
4428;SDS011;2227;47.810;8.810;2023-08-17T06:40:44;9.57;;;4.93;;
4428;SDS011;2227;47.810;8.810;2023-08-17T06:43:11;6.80;;;5.40;;
4428;SDS011;2227;47.810;8.810;2023-08-17T06:45:38;6.95;;;4.78;;
4428;SDS011;2227;47.810;8.810;2023-08-17T06:48:05;6.35;;;4.95;;
4428;SDS011;2227;47.810;8.810;2023-08-17T06:50:32;5.70;;;4.75;;
4428;SDS011;2227;47.810;8.810;2023-08-17T06:52:59;6.47;;;4.93;;
4428;SDS011;2227;47.810;8.810;2023-08-17T06:55:26;6.35;;;4.60;;
4428;SDS011;2227;47.810;8.810;2023-08-17T06:57:53;6.53;;;4.45;;
4428;SDS011;2227;47.810;8.810;2023-08-17T07:00:21;6.13;;;5.00;;
4428;SDS011;2227;47.810;8.810;2023-08-17T07:02:48;5.50;;;4.90;;
4428;SDS011;2227;47.810;8.810;2023-08-17T07:05:22;6.95;;;4.72;;
4428;SDS011;2227;47.810;8.810;2023-08-17T07:07:50;6.53;;;5.03;;
4428;SDS011;2227;47.810;8.810;2023-08-17T07:10:16;7.72;;;4.95;;
4428;SDS011;2227;47.810;8.810;2023-08-17T07:12:43;6.20;;;4.38;;
4428;SDS011;2227;47.810;8.810;2023-08-17T07:15:10;5.78;;;4.53;;
4428;SDS011;2227;47.810;8.810;2023-08-17T07:17:38;7.03;;;4.40;;
4428;SDS011;2227;47.810;8.810;2023-08-17T07:20:05;5.78;;;4.60;;
4428;SDS011;2227;47.810;8.810;2023-08-17T07:22:41;6.63;;;4.70;;
4428;SDS011;2227;47.810;8.810;2023-08-17T07:25:08;6.45;;;4.88;;
4428;SDS011;2227;47.810;8.810;2023-08-17T07:27:35;4.90;;;4.20;;
4428;SDS011;2227;47.810;8.810;2023-08-17T07:30:02;7.63;;;4.72;;
4428;SDS011;2227;47.810;8.810;2023-08-17T07:32:29;6.85;;;4.63;;
4428;SDS011;2227;47.810;8.810;2023-08-17T07:34:56;5.45;;;4.70;;
4428;SDS011;2227;47.810;8.810;2023-08-17T07:37:23;6.75;;;4.57;;
4428;SDS011;2227;47.810;8.810;2023-08-17T07:39:50;6.32;;;4.25;;
4428;SDS011;2227;47.810;8.810;2023-08-17T07:42:17;7.68;;;4.90;;
4428;SDS011;2227;47.810;8.810;2023-08-17T07:44:44;5.65;;;4.60;;
4428;SDS011;2227;47.810;8.810;2023-08-17T07:47:10;6.47;;;4.93;;
4428;SDS011;2227;47.810;8.810;2023-08-17T07:49:37;7.30;;;5.55;;
4428;SDS011;2227;47.810;8.810;2023-08-17T07:52:04;6.32;;;4.70;;
4428;SDS011;2227;47.810;8.810;2023-08-17T07:54:30;7.43;;;4.50;;
4428;SDS011;2227;47.810;8.810;2023-08-17T07:56:58;6.30;;;4.55;;
4428;SDS011;2227;47.810;8.810;2023-08-17T07:59:24;6.60;;;4.88;;
4428;SDS011;2227;47.810;8.810;2023-08-17T08:01:51;8.70;;;4.63;;
4428;SDS011;2227;47.810;8.810;2023-08-17T08:04:18;4.82;;;4.13;;
4428;SDS011;2227;47.810;8.810;2023-08-17T08:06:45;7.43;;;4.13;;
4428;SDS011;2227;47.810;8.810;2023-08-17T08:09:13;6.28;;;3.92;;
4428;SDS011;2227;47.810;8.810;2023-08-17T08:11:39;6.75;;;4.20;;
4428;SDS011;2227;47.810;8.810;2023-08-17T08:14:06;6.13;;;4.50;;
4428;SDS011;2227;47.810;8.810;2023-08-17T08:16:33;5.25;;;4.03;;
4428;SDS011;2227;47.810;8.810;2023-08-17T08:19:00;6.05;;;3.85;;
4428;SDS011;2227;47.810;8.810;2023-08-17T08:21:26;5.00;;;4.00;;
4428;SDS011;2227;47.810;8.810;2023-08-17T08:23:54;6.05;;;4.00;;
4428;SDS011;2227;47.810;8.810;2023-08-17T08:26:22;5.80;;;4.65;;
4428;SDS011;2227;47.810;8.810;2023-08-17T08:28:48;4.55;;;3.80;;
4428;SDS011;2227;47.810;8.810;2023-08-17T08:31:15;6.05;;;3.83;;
4428;SDS011;2227;47.810;8.810;2023-08-17T08:33:42;6.10;;;4.68;;
4428;SDS011;2227;47.810;8.810;2023-08-17T08:36:10;6.38;;;3.67;;
4428;SDS011;2227;47.810;8.810;2023-08-17T08:38:36;6.40;;;3.38;;
4428;SDS011;2227;47.810;8.810;2023-08-17T08:41:03;5.47;;;3.67;;
4428;SDS011;2227;47.810;8.810;2023-08-17T08:43:34;4.35;;;3.70;;
4428;SDS011;2227;47.810;8.810;2023-08-17T08:46:01;6.45;;;3.95;;
4428;SDS011;2227;47.810;8.810;2023-08-17T08:48:28;4.05;;;3.10;;
4428;SDS011;2227;47.810;8.810;2023-08-17T08:50:56;5.03;;;3.22;;
4428;SDS011;2227;47.810;8.810;2023-08-17T08:53:36;3.95;;;3.10;;
4428;SDS011;2227;47.810;8.810;2023-08-17T08:56:04;5.82;;;3.40;;
4428;SDS011;2227;47.810;8.810;2023-08-17T08:58:36;4.63;;;3.38;;
4428;SDS011;2227;47.810;8.810;2023-08-17T09:01:06;4.80;;;3.08;;
4428;SDS011;2227;47.810;8.810;2023-08-17T09:03:34;5.68;;;3.60;;
4428;SDS011;2227;47.810;8.810;2023-08-17T09:06:03;5.20;;;3.05;;
4428;SDS011;2227;47.810;8.810;2023-08-17T09:08:30;4.45;;;3.08;;
4428;SDS011;2227;47.810;8.810;2023-08-17T09:10:57;3.83;;;3.00;;
4428;SDS011;2227;47.810;8.810;2023-08-17T09:13:24;4.07;;;3.03;;
4428;SDS011;2227;47.810;8.810;2023-08-17T09:15:51;5.43;;;2.90;;
4428;SDS011;2227;47.810;8.810;2023-08-17T09:18:18;4.60;;;3.05;;
4428;SDS011;2227;47.810;8.810;2023-08-17T09:20:47;3.97;;;2.70;;
4428;SDS011;2227;47.810;8.810;2023-08-17T09:23:15;4.63;;;2.78;;
4428;SDS011;2227;47.810;8.810;2023-08-17T09:25:47;4.22;;;3.25;;
4428;SDS011;2227;47.810;8.810;2023-08-17T09:28:16;4.75;;;3.15;;
4428;SDS011;2227;47.810;8.810;2023-08-17T09:33:23;5.70;;;3.30;;
4428;SDS011;2227;47.810;8.810;2023-08-17T09:35:51;3.95;;;3.13;;
4428;SDS011;2227;47.810;8.810;2023-08-17T09:38:24;4.32;;;2.88;;
4428;SDS011;2227;47.810;8.810;2023-08-17T09:40:51;4.68;;;2.95;;
4428;SDS011;2227;47.810;8.810;2023-08-17T09:43:18;3.95;;;3.20;;
4428;SDS011;2227;47.810;8.810;2023-08-17T09:45:48;4.50;;;2.90;;
4428;SDS011;2227;47.810;8.810;2023-08-17T09:48:18;4.53;;;2.75;;
4428;SDS011;2227;47.810;8.810;2023-08-17T09:50:47;4.78;;;3.00;;
4428;SDS011;2227;47.810;8.810;2023-08-17T09:53:14;4.25;;;3.10;;
4428;SDS011;2227;47.810;8.810;2023-08-17T09:55:42;5.45;;;2.97;;
4428;SDS011;2227;47.810;8.810;2023-08-17T09:58:10;4.25;;;2.92;;
4428;SDS011;2227;47.810;8.810;2023-08-17T10:00:47;3.55;;;2.53;;
4428;SDS011;2227;47.810;8.810;2023-08-17T10:03:18;4.35;;;2.70;;
4428;SDS011;2227;47.810;8.810;2023-08-17T10:05:52;4.85;;;2.97;;
4428;SDS011;2227;47.810;8.810;2023-08-17T10:08:25;5.03;;;3.00;;
4428;SDS011;2227;47.810;8.810;2023-08-17T10:10:54;4.85;;;2.70;;
4428;SDS011;2227;47.810;8.810;2023-08-17T10:13:28;3.67;;;2.40;;
4428;SDS011;2227;47.810;8.810;2023-08-17T10:21:37;4.10;;;2.97;;
4428;SDS011;2227;47.810;8.810;2023-08-17T10:24:09;5.13;;;3.33;;
4428;SDS011;2227;47.810;8.810;2023-08-17T10:26:37;4.95;;;3.22;;
4428;SDS011;2227;47.810;8.810;2023-08-17T10:29:05;3.30;;;2.55;;
4428;SDS011;2227;47.810;8.810;2023-08-17T10:31:43;4.82;;;2.97;;
4428;SDS011;2227;47.810;8.810;2023-08-17T10:34:13;4.25;;;2.70;;
4428;SDS011;2227;47.810;8.810;2023-08-17T10:36:41;4.32;;;3.03;;
4428;SDS011;2227;47.810;8.810;2023-08-17T10:41:53;5.03;;;2.83;;
4428;SDS011;2227;47.810;8.810;2023-08-17T10:44:40;3.50;;;2.67;;
4428;SDS011;2227;47.810;8.810;2023-08-17T10:47:25;4.35;;;2.60;;
4428;SDS011;2227;47.810;8.810;2023-08-17T10:52:28;2.83;;;2.30;;
4428;SDS011;2227;47.810;8.810;2023-08-17T10:55:03;4.47;;;2.90;;
4428;SDS011;2227;47.810;8.810;2023-08-17T11:02:59;4.57;;;2.83;;
4428;SDS011;2227;47.810;8.810;2023-08-17T11:08:00;3.60;;;3.10;;
4428;SDS011;2227;47.810;8.810;2023-08-17T11:10:28;4.57;;;2.88;;
4428;SDS011;2227;47.810;8.810;2023-08-17T11:12:56;4.60;;;3.25;;
4428;SDS011;2227;47.810;8.810;2023-08-17T11:15:26;6.13;;;3.10;;
4428;SDS011;2227;47.810;8.810;2023-08-17T11:18:14;5.47;;;3.00;;
4428;SDS011;2227;47.810;8.810;2023-08-17T11:20:41;5.03;;;3.40;;
4428;SDS011;2227;47.810;8.810;2023-08-17T11:23:08;4.90;;;3.05;;
4428;SDS011;2227;47.810;8.810;2023-08-17T11:25:36;5.40;;;3.25;;
4428;SDS011;2227;47.810;8.810;2023-08-17T11:28:05;5.40;;;3.00;;
4428;SDS011;2227;47.810;8.810;2023-08-17T11:30:35;5.90;;;3.58;;
4428;SDS011;2227;47.810;8.810;2023-08-17T11:33:05;3.50;;;3.20;;
4428;SDS011;2227;47.810;8.810;2023-08-17T11:35:32;5.72;;;3.40;;
4428;SDS011;2227;47.810;8.810;2023-08-17T11:38:00;3.75;;;2.78;;
4428;SDS011;2227;47.810;8.810;2023-08-17T11:40:27;3.92;;;2.85;;
4428;SDS011;2227;47.810;8.810;2023-08-17T11:42:54;4.97;;;2.78;;
4428;SDS011;2227;47.810;8.810;2023-08-17T11:45:20;4.18;;;2.95;;
4428;SDS011;2227;47.810;8.810;2023-08-17T11:47:53;6.65;;;3.72;;
4428;SDS011;2227;47.810;8.810;2023-08-17T11:50:19;5.80;;;3.25;;
4428;SDS011;2227;47.810;8.810;2023-08-17T11:52:47;5.40;;;3.03;;
4428;SDS011;2227;47.810;8.810;2023-08-17T11:55:15;4.03;;;2.90;;
4428;SDS011;2227;47.810;8.810;2023-08-17T11:57:44;6.45;;;3.28;;
4428;SDS011;2227;47.810;8.810;2023-08-17T12:00:16;3.63;;;2.80;;
4428;SDS011;2227;47.810;8.810;2023-08-17T12:02:47;7.65;;;2.60;;
4428;SDS011;2227;47.810;8.810;2023-08-17T12:05:21;7.20;;;2.10;;
4428;SDS011;2227;47.810;8.810;2023-08-17T12:07:50;4.30;;;1.70;;
4428;SDS011;2227;47.810;8.810;2023-08-17T12:10:18;3.88;;;1.90;;
4428;SDS011;2227;47.810;8.810;2023-08-17T12:12:46;5.95;;;1.80;;
4428;SDS011;2227;47.810;8.810;2023-08-17T12:15:16;8.05;;;2.53;;
4428;SDS011;2227;47.810;8.810;2023-08-17T12:17:47;9.57;;;2.33;;
4428;SDS011;2227;47.810;8.810;2023-08-17T12:20:18;4.53;;;2.10;;
4428;SDS011;2227;47.810;8.810;2023-08-17T12:22:47;4.97;;;2.15;;
4428;SDS011;2227;47.810;8.810;2023-08-17T12:25:14;5.63;;;2.00;;
4428;SDS011;2227;47.810;8.810;2023-08-17T12:27:41;4.28;;;2.05;;
4428;SDS011;2227;47.810;8.810;2023-08-17T12:30:29;5.22;;;2.30;;
4428;SDS011;2227;47.810;8.810;2023-08-17T12:32:57;3.53;;;2.10;;
4428;SDS011;2227;47.810;8.810;2023-08-17T12:35:25;3.90;;;2.30;;
4428;SDS011;2227;47.810;8.810;2023-08-17T12:37:52;5.00;;;2.40;;
4428;SDS011;2227;47.810;8.810;2023-08-17T12:40:20;6.50;;;2.53;;
4428;SDS011;2227;47.810;8.810;2023-08-17T12:42:48;5.13;;;2.35;;
4428;SDS011;2227;47.810;8.810;2023-08-17T12:45:15;5.07;;;2.60;;
4428;SDS011;2227;47.810;8.810;2023-08-17T12:47:42;4.20;;;2.40;;
4428;SDS011;2227;47.810;8.810;2023-08-17T12:50:09;4.57;;;2.40;;
4428;SDS011;2227;47.810;8.810;2023-08-17T12:52:36;5.75;;;2.78;;
4428;SDS011;2227;47.810;8.810;2023-08-17T12:55:03;7.45;;;3.35;;
4428;SDS011;2227;47.810;8.810;2023-08-17T12:57:30;4.65;;;2.63;;
4428;SDS011;2227;47.810;8.810;2023-08-17T12:59:57;7.93;;;3.03;;
4428;SDS011;2227;47.810;8.810;2023-08-17T13:02:24;6.25;;;2.90;;
4428;SDS011;2227;47.810;8.810;2023-08-17T13:04:52;8.05;;;3.10;;
4428;SDS011;2227;47.810;8.810;2023-08-17T13:07:19;7.88;;;3.20;;
4428;SDS011;2227;47.810;8.810;2023-08-17T13:09:46;8.13;;;3.90;;
4428;SDS011;2227;47.810;8.810;2023-08-17T13:12:13;5.15;;;3.05;;
4428;SDS011;2227;47.810;8.810;2023-08-17T13:14:39;6.28;;;3.30;;
4428;SDS011;2227;47.810;8.810;2023-08-17T13:17:06;6.20;;;2.78;;
4428;SDS011;2227;47.810;8.810;2023-08-17T13:19:33;5.80;;;2.97;;
4428;SDS011;2227;47.810;8.810;2023-08-17T13:22:00;6.40;;;3.10;;
4428;SDS011;2227;47.810;8.810;2023-08-17T13:24:28;9.32;;;3.30;;
4428;SDS011;2227;47.810;8.810;2023-08-17T13:26:55;8.32;;;2.97;;
4428;SDS011;2227;47.810;8.810;2023-08-17T13:29:23;4.47;;;2.72;;
4428;SDS011;2227;47.810;8.810;2023-08-17T13:31:50;5.10;;;2.80;;
4428;SDS011;2227;47.810;8.810;2023-08-17T13:34:17;5.90;;;2.97;;
4428;SDS011;2227;47.810;8.810;2023-08-17T13:36:43;5.03;;;2.75;;
4428;SDS011;2227;47.810;8.810;2023-08-17T13:39:10;4.93;;;2.53;;
4428;SDS011;2227;47.810;8.810;2023-08-17T13:41:37;5.40;;;2.50;;
4428;SDS011;2227;47.810;8.810;2023-08-17T13:44:03;6.25;;;2.70;;
4428;SDS011;2227;47.810;8.810;2023-08-17T13:46:31;5.68;;;3.03;;
4428;SDS011;2227;47.810;8.810;2023-08-17T13:48:57;4.85;;;2.45;;
4428;SDS011;2227;47.810;8.810;2023-08-17T13:51:25;4.50;;;2.88;;
4428;SDS011;2227;47.810;8.810;2023-08-17T13:53:52;6.03;;;2.72;;
4428;SDS011;2227;47.810;8.810;2023-08-17T13:56:18;5.30;;;2.47;;
4428;SDS011;2227;47.810;8.810;2023-08-17T13:58:45;4.22;;;2.47;;
4428;SDS011;2227;47.810;8.810;2023-08-17T14:01:15;7.57;;;2.90;;
4428;SDS011;2227;47.810;8.810;2023-08-17T14:03:43;5.80;;;2.85;;
4428;SDS011;2227;47.810;8.810;2023-08-17T14:06:10;6.82;;;2.60;;
4428;SDS011;2227;47.810;8.810;2023-08-17T14:08:36;6.22;;;2.85;;
4428;SDS011;2227;47.810;8.810;2023-08-17T14:11:03;4.68;;;2.80;;
4428;SDS011;2227;47.810;8.810;2023-08-17T14:13:30;8.60;;;2.97;;
4428;SDS011;2227;47.810;8.810;2023-08-17T14:15:57;6.20;;;2.92;;
4428;SDS011;2227;47.810;8.810;2023-08-17T14:18:25;5.75;;;2.80;;
4428;SDS011;2227;47.810;8.810;2023-08-17T14:20:52;4.93;;;2.90;;
4428;SDS011;2227;47.810;8.810;2023-08-17T14:23:19;6.47;;;2.95;;
4428;SDS011;2227;47.810;8.810;2023-08-17T14:25:45;5.63;;;2.90;;
4428;SDS011;2227;47.810;8.810;2023-08-17T14:28:12;4.50;;;2.70;;
4428;SDS011;2227;47.810;8.810;2023-08-17T14:30:39;6.03;;;2.70;;
4428;SDS011;2227;47.810;8.810;2023-08-17T14:33:05;6.70;;;3.03;;
4428;SDS011;2227;47.810;8.810;2023-08-17T14:35:32;4.60;;;2.95;;
4428;SDS011;2227;47.810;8.810;2023-08-17T14:37:59;4.65;;;2.70;;
4428;SDS011;2227;47.810;8.810;2023-08-17T14:40:28;3.90;;;2.80;;
4428;SDS011;2227;47.810;8.810;2023-08-17T14:42:54;4.78;;;2.78;;
4428;SDS011;2227;47.810;8.810;2023-08-17T14:45:21;4.15;;;2.72;;
4428;SDS011;2227;47.810;8.810;2023-08-17T14:47:48;3.90;;;3.08;;
4428;SDS011;2227;47.810;8.810;2023-08-17T14:50:15;4.13;;;2.85;;
4428;SDS011;2227;47.810;8.810;2023-08-17T14:52:42;5.00;;;2.70;;
4428;SDS011;2227;47.810;8.810;2023-08-17T14:55:08;6.35;;;3.17;;
4428;SDS011;2227;47.810;8.810;2023-08-17T14:57:35;5.05;;;2.72;;
4428;SDS011;2227;47.810;8.810;2023-08-17T15:00:02;4.43;;;3.15;;
4428;SDS011;2227;47.810;8.810;2023-08-17T15:02:30;4.57;;;3.03;;
4428;SDS011;2227;47.810;8.810;2023-08-17T15:04:57;4.72;;;2.70;;
4428;SDS011;2227;47.810;8.810;2023-08-17T15:07:23;6.72;;;3.42;;
4428;SDS011;2227;47.810;8.810;2023-08-17T15:09:51;8.98;;;3.95;;
4428;SDS011;2227;47.810;8.810;2023-08-17T15:12:19;6.78;;;3.70;;
4428;SDS011;2227;47.810;8.810;2023-08-17T15:14:49;6.28;;;3.88;;
4428;SDS011;2227;47.810;8.810;2023-08-17T15:17:16;4.65;;;3.38;;
4428;SDS011;2227;47.810;8.810;2023-08-17T15:19:42;5.75;;;3.75;;
4428;SDS011;2227;47.810;8.810;2023-08-17T15:22:09;5.70;;;3.67;;
4428;SDS011;2227;47.810;8.810;2023-08-17T15:24:39;6.95;;;3.65;;
4428;SDS011;2227;47.810;8.810;2023-08-17T15:27:06;6.75;;;3.15;;
4428;SDS011;2227;47.810;8.810;2023-08-17T15:29:32;4.72;;;2.97;;
4428;SDS011;2227;47.810;8.810;2023-08-17T15:31:59;4.60;;;3.20;;
4428;SDS011;2227;47.810;8.810;2023-08-17T15:34:26;6.22;;;3.00;;
4428;SDS011;2227;47.810;8.810;2023-08-17T15:36:53;5.32;;;2.83;;
4428;SDS011;2227;47.810;8.810;2023-08-17T15:39:19;4.68;;;3.10;;
4428;SDS011;2227;47.810;8.810;2023-08-17T15:41:46;4.00;;;2.65;;
4428;SDS011;2227;47.810;8.810;2023-08-17T15:44:13;6.25;;;2.97;;
4428;SDS011;2227;47.810;8.810;2023-08-17T15:46:39;5.28;;;3.10;;
4428;SDS011;2227;47.810;8.810;2023-08-17T15:49:06;4.78;;;2.65;;
4428;SDS011;2227;47.810;8.810;2023-08-17T15:51:33;4.78;;;2.60;;
4428;SDS011;2227;47.810;8.810;2023-08-17T15:54:00;7.35;;;3.22;;
4428;SDS011;2227;47.810;8.810;2023-08-17T15:56:26;7.20;;;2.75;;
4428;SDS011;2227;47.810;8.810;2023-08-17T15:58:53;5.22;;;2.80;;
4428;SDS011;2227;47.810;8.810;2023-08-17T16:01:20;4.35;;;2.72;;
4428;SDS011;2227;47.810;8.810;2023-08-17T16:03:46;5.03;;;2.63;;
4428;SDS011;2227;47.810;8.810;2023-08-17T16:06:13;4.35;;;2.70;;
4428;SDS011;2227;47.810;8.810;2023-08-17T16:08:43;5.53;;;2.70;;
4428;SDS011;2227;47.810;8.810;2023-08-17T16:11:14;5.43;;;2.92;;
4428;SDS011;2227;47.810;8.810;2023-08-17T16:13:41;4.70;;;2.72;;
4428;SDS011;2227;47.810;8.810;2023-08-17T16:16:12;7.25;;;2.90;;
4428;SDS011;2227;47.810;8.810;2023-08-17T16:18:39;4.32;;;2.30;;
4428;SDS011;2227;47.810;8.810;2023-08-17T16:21:06;4.50;;;2.30;;
4428;SDS011;2227;47.810;8.810;2023-08-17T16:23:40;5.60;;;2.53;;
4428;SDS011;2227;47.810;8.810;2023-08-17T16:26:09;4.70;;;2.65;;
4428;SDS011;2227;47.810;8.810;2023-08-17T16:28:36;6.93;;;2.70;;
4428;SDS011;2227;47.810;8.810;2023-08-17T16:31:02;6.65;;;2.72;;
4428;SDS011;2227;47.810;8.810;2023-08-17T16:33:30;4.90;;;2.92;;
4428;SDS011;2227;47.810;8.810;2023-08-17T16:35:57;6.47;;;2.70;;
4428;SDS011;2227;47.810;8.810;2023-08-17T16:38:24;3.65;;;2.30;;
4428;SDS011;2227;47.810;8.810;2023-08-17T16:40:50;6.30;;;2.30;;
4428;SDS011;2227;47.810;8.810;2023-08-17T16:43:17;4.43;;;2.58;;
4428;SDS011;2227;47.810;8.810;2023-08-17T16:45:46;5.35;;;2.58;;
4428;SDS011;2227;47.810;8.810;2023-08-17T16:48:13;4.43;;;2.45;;
4428;SDS011;2227;47.810;8.810;2023-08-17T16:50:40;3.92;;;2.30;;
4428;SDS011;2227;47.810;8.810;2023-08-17T16:53:07;3.75;;;2.40;;
4428;SDS011;2227;47.810;8.810;2023-08-17T16:55:34;4.90;;;2.22;;
4428;SDS011;2227;47.810;8.810;2023-08-17T16:58:01;4.60;;;2.72;;
4428;SDS011;2227;47.810;8.810;2023-08-17T17:00:28;5.85;;;2.45;;
4428;SDS011;2227;47.810;8.810;2023-08-17T17:02:55;4.15;;;2.53;;
4428;SDS011;2227;47.810;8.810;2023-08-17T17:05:22;4.63;;;2.55;;
4428;SDS011;2227;47.810;8.810;2023-08-17T17:07:49;3.90;;;2.50;;
4428;SDS011;2227;47.810;8.810;2023-08-17T17:10:15;3.67;;;2.28;;
4428;SDS011;2227;47.810;8.810;2023-08-17T17:12:46;7.10;;;2.33;;
4428;SDS011;2227;47.810;8.810;2023-08-17T17:15:13;5.47;;;2.53;;
4428;SDS011;2227;47.810;8.810;2023-08-17T17:17:39;5.03;;;2.67;;
4428;SDS011;2227;47.810;8.810;2023-08-17T17:20:07;4.63;;;2.17;;
4428;SDS011;2227;47.810;8.810;2023-08-17T17:22:34;6.13;;;2.47;;
4428;SDS011;2227;47.810;8.810;2023-08-17T17:25:00;4.75;;;2.58;;
4428;SDS011;2227;47.810;8.810;2023-08-17T17:27:30;3.58;;;2.13;;
4428;SDS011;2227;47.810;8.810;2023-08-17T17:29:56;5.13;;;2.80;;
4428;SDS011;2227;47.810;8.810;2023-08-17T17:32:23;4.80;;;2.78;;
4428;SDS011;2227;47.810;8.810;2023-08-17T17:34:50;4.45;;;2.60;;
4428;SDS011;2227;47.810;8.810;2023-08-17T17:37:16;4.55;;;2.45;;
4428;SDS011;2227;47.810;8.810;2023-08-17T17:39:46;4.28;;;2.42;;
4428;SDS011;2227;47.810;8.810;2023-08-17T17:42:13;4.45;;;2.28;;
4428;SDS011;2227;47.810;8.810;2023-08-17T17:44:39;4.38;;;2.20;;
4428;SDS011;2227;47.810;8.810;2023-08-17T17:47:06;5.20;;;2.80;;
4428;SDS011;2227;47.810;8.810;2023-08-17T17:49:33;4.13;;;2.33;;
4428;SDS011;2227;47.810;8.810;2023-08-17T17:51:59;4.03;;;1.95;;
4428;SDS011;2227;47.810;8.810;2023-08-17T17:54:26;3.78;;;2.13;;
4428;SDS011;2227;47.810;8.810;2023-08-17T17:56:53;4.07;;;2.40;;
4428;SDS011;2227;47.810;8.810;2023-08-17T17:59:20;4.72;;;2.22;;
4428;SDS011;2227;47.810;8.810;2023-08-17T18:01:46;5.40;;;2.28;;
4428;SDS011;2227;47.810;8.810;2023-08-17T18:04:13;4.72;;;2.35;;
4428;SDS011;2227;47.810;8.810;2023-08-17T18:06:40;6.68;;;2.33;;
4428;SDS011;2227;47.810;8.810;2023-08-17T18:09:06;5.20;;;2.35;;
4428;SDS011;2227;47.810;8.810;2023-08-17T18:11:33;4.18;;;2.22;;
4428;SDS011;2227;47.810;8.810;2023-08-17T18:14:00;5.70;;;2.25;;
4428;SDS011;2227;47.810;8.810;2023-08-17T18:16:29;3.80;;;2.05;;
4428;SDS011;2227;47.810;8.810;2023-08-17T18:18:56;4.18;;;2.33;;
4428;SDS011;2227;47.810;8.810;2023-08-17T18:21:23;4.57;;;2.55;;
4428;SDS011;2227;47.810;8.810;2023-08-17T18:23:50;5.07;;;2.40;;
4428;SDS011;2227;47.810;8.810;2023-08-17T18:26:16;3.63;;;2.40;;
4428;SDS011;2227;47.810;8.810;2023-08-17T18:28:43;3.80;;;2.08;;
4428;SDS011;2227;47.810;8.810;2023-08-17T18:31:10;4.15;;;2.20;;
4428;SDS011;2227;47.810;8.810;2023-08-17T18:33:37;5.10;;;2.40;;
4428;SDS011;2227;47.810;8.810;2023-08-17T18:36:03;7.25;;;2.60;;
4428;SDS011;2227;47.810;8.810;2023-08-17T18:38:30;6.05;;;2.60;;
4428;SDS011;2227;47.810;8.810;2023-08-17T18:41:05;4.10;;;2.30;;
4428;SDS011;2227;47.810;8.810;2023-08-17T18:43:35;6.80;;;2.63;;
4428;SDS011;2227;47.810;8.810;2023-08-17T18:46:03;5.28;;;2.53;;
4428;SDS011;2227;47.810;8.810;2023-08-17T18:48:30;3.80;;;2.10;;
4428;SDS011;2227;47.810;8.810;2023-08-17T18:50:57;4.55;;;2.50;;
4428;SDS011;2227;47.810;8.810;2023-08-17T18:53:24;4.07;;;2.63;;
4428;SDS011;2227;47.810;8.810;2023-08-17T18:55:51;4.70;;;2.80;;
4428;SDS011;2227;47.810;8.810;2023-08-17T18:58:18;4.40;;;2.47;;
4428;SDS011;2227;47.810;8.810;2023-08-17T19:00:46;5.60;;;2.67;;
4428;SDS011;2227;47.810;8.810;2023-08-17T19:03:13;3.55;;;2.40;;
4428;SDS011;2227;47.810;8.810;2023-08-17T19:05:40;5.53;;;3.70;;
4428;SDS011;2227;47.810;8.810;2023-08-17T19:08:07;7.28;;;3.22;;
4428;SDS011;2227;47.810;8.810;2023-08-17T19:10:33;5.70;;;3.20;;
4428;SDS011;2227;47.810;8.810;2023-08-17T19:13:00;5.50;;;3.65;;
4428;SDS011;2227;47.810;8.810;2023-08-17T19:15:27;5.82;;;3.92;;
4428;SDS011;2227;47.810;8.810;2023-08-17T19:17:53;6.75;;;3.67;;
4428;SDS011;2227;47.810;8.810;2023-08-17T19:20:20;7.03;;;3.05;;
4428;SDS011;2227;47.810;8.810;2023-08-17T19:22:47;4.95;;;2.28;;
4428;SDS011;2227;47.810;8.810;2023-08-17T19:25:14;5.05;;;2.50;;
4428;SDS011;2227;47.810;8.810;2023-08-17T19:27:40;4.25;;;2.10;;
4428;SDS011;2227;47.810;8.810;2023-08-17T19:30:07;3.33;;;2.22;;